sensor_id;sensor_type;location;lat;lon;timestamp;temperature;humidity
25208;DHT22;13153;52.316;21.166;2023-09-19T00:00:46;20.90;99.90
25208;DHT22;13153;52.316;21.166;2023-09-19T00:03:15;20.90;99.90
25208;DHT22;13153;52.316;21.166;2023-09-19T00:05:41;20.90;99.90
25208;DHT22;13153;52.316;21.166;2023-09-19T00:08:10;20.90;99.90
25208;DHT22;13153;52.316;21.166;2023-09-19T00:10:38;20.80;1.00
25208;DHT22;13153;52.316;21.166;2023-09-19T00:13:06;20.80;1.00
25208;DHT22;13153;52.316;21.166;2023-09-19T00:15:40;20.80;1.00
25208;DHT22;13153;52.316;21.166;2023-09-19T00:18:18;20.70;1.00
25208;DHT22;13153;52.316;21.166;2023-09-19T00:20:47;20.70;1.00
25208;DHT22;13153;52.316;21.166;2023-09-19T00:23:17;20.60;97.20
25208;DHT22;13153;52.316;21.166;2023-09-19T00:25:44;20.60;99.90
25208;DHT22;13153;52.316;21.166;2023-09-19T00:28:10;20.50;99.90
25208;DHT22;13153;52.316;21.166;2023-09-19T00:30:37;20.50;99.90
25208;DHT22;13153;52.316;21.166;2023-09-19T00:33:04;20.50;99.90
25208;DHT22;13153;52.316;21.166;2023-09-19T00:35:32;20.50;99.90
25208;DHT22;13153;52.316;21.166;2023-09-19T00:37:58;20.50;99.90
25208;DHT22;13153;52.316;21.166;2023-09-19T00:40:24;20.50;99.90
25208;DHT22;13153;52.316;21.166;2023-09-19T00:42:51;20.50;1.00
25208;DHT22;13153;52.316;21.166;2023-09-19T00:45:18;20.50;1.00
25208;DHT22;13153;52.316;21.166;2023-09-19T00:47:48;20.40;1.00
25208;DHT22;13153;52.316;21.166;2023-09-19T00:50:19;20.40;1.00
25208;DHT22;13153;52.316;21.166;2023-09-19T00:52:49;20.40;1.00
25208;DHT22;13153;52.316;21.166;2023-09-19T00:55:18;20.40;1.00
25208;DHT22;13153;52.316;21.166;2023-09-19T00:57:45;20.40;1.00
25208;DHT22;13153;52.316;21.166;2023-09-19T01:00:12;20.50;1.00
25208;DHT22;13153;52.316;21.166;2023-09-19T01:02:44;20.40;1.00
25208;DHT22;13153;52.316;21.166;2023-09-19T01:05:11;20.30;1.00
25208;DHT22;13153;52.316;21.166;2023-09-19T01:07:41;20.30;1.00
25208;DHT22;13153;52.316;21.166;2023-09-19T01:10:27;20.30;1.00
25208;DHT22;13153;52.316;21.166;2023-09-19T01:13:10;20.30;1.00
25208;DHT22;13153;52.316;21.166;2023-09-19T01:16:25;20.20;17.00
25208;DHT22;13153;52.316;21.166;2023-09-19T01:19:26;20.30;1.00
25208;DHT22;13153;52.316;21.166;2023-09-19T01:22:36;20.30;1.00
25208;DHT22;13153;52.316;21.166;2023-09-19T01:31:13;20.20;1.00
25208;DHT22;13153;52.316;21.166;2023-09-19T01:34:00;20.30;5.10
25208;DHT22;13153;52.316;21.166;2023-09-19T01:36:34;20.30;13.70
25208;DHT22;13153;52.316;21.166;2023-09-19T01:39:04;20.30;1.00
25208;DHT22;13153;52.316;21.166;2023-09-19T01:45:20;20.20;99.90
25208;DHT22;13153;52.316;21.166;2023-09-19T01:47:53;20.20;99.90
25208;DHT22;13153;52.316;21.166;2023-09-19T01:50:49;20.20;96.80
25208;DHT22;13153;52.316;21.166;2023-09-19T01:53:29;20.20;99.90
25208;DHT22;13153;52.316;21.166;2023-09-19T01:56:01;20.10;99.90
25208;DHT22;13153;52.316;21.166;2023-09-19T02:01:05;20.10;99.90
25208;DHT22;13153;52.316;21.166;2023-09-19T02:03:36;20.10;99.90
25208;DHT22;13153;52.316;21.166;2023-09-19T02:06:04;20.10;99.90
25208;DHT22;13153;52.316;21.166;2023-09-19T02:08:31;20.10;99.90
25208;DHT22;13153;52.316;21.166;2023-09-19T02:11:00;20.10;99.90
25208;DHT22;13153;52.316;21.166;2023-09-19T02:13:25;20.10;99.90
25208;DHT22;13153;52.316;21.166;2023-09-19T02:15:53;20.00;99.90
25208;DHT22;13153;52.316;21.166;2023-09-19T02:18:19;20.00;99.90
25208;DHT22;13153;52.316;21.166;2023-09-19T02:20:45;20.00;99.90
25208;DHT22;13153;52.316;21.166;2023-09-19T02:23:12;20.00;99.90
25208;DHT22;13153;52.316;21.166;2023-09-19T02:25:39;20.00;1.00
25208;DHT22;13153;52.316;21.166;2023-09-19T02:28:06;20.00;1.00
25208;DHT22;13153;52.316;21.166;2023-09-19T02:30:32;20.00;1.00
25208;DHT22;13153;52.316;21.166;2023-09-19T02:32:59;20.00;1.00
25208;DHT22;13153;52.316;21.166;2023-09-19T02:35:27;20.00;1.00
25208;DHT22;13153;52.316;21.166;2023-09-19T02:37:54;20.00;1.00
25208;DHT22;13153;52.316;21.166;2023-09-19T02:40:19;20.00;1.00
25208;DHT22;13153;52.316;21.166;2023-09-19T02:42:49;20.00;1.00
25208;DHT22;13153;52.316;21.166;2023-09-19T02:45:19;20.00;1.00
25208;DHT22;13153;52.316;21.166;2023-09-19T02:47:46;20.00;1.00
25208;DHT22;13153;52.316;21.166;2023-09-19T02:50:13;19.90;1.00
25208;DHT22;13153;52.316;21.166;2023-09-19T02:52:43;19.90;1.00
25208;DHT22;13153;52.316;21.166;2023-09-19T02:55:13;19.80;1.00
25208;DHT22;13153;52.316;21.166;2023-09-19T02:57:46;19.80;1.00
25208;DHT22;13153;52.316;21.166;2023-09-19T03:00:16;19.80;1.00
25208;DHT22;13153;52.316;21.166;2023-09-19T03:02:54;19.70;1.00
25208;DHT22;13153;52.316;21.166;2023-09-19T03:05:21;19.80;1.00
25208;DHT22;13153;52.316;21.166;2023-09-19T03:07:49;19.70;1.00
25208;DHT22;13153;52.316;21.166;2023-09-19T03:10:19;19.70;1.00
25208;DHT22;13153;52.316;21.166;2023-09-19T03:12:50;19.70;1.00
25208;DHT22;13153;52.316;21.166;2023-09-19T03:15:16;19.70;1.00
25208;DHT22;13153;52.316;21.166;2023-09-19T03:17:47;19.70;1.00
25208;DHT22;13153;52.316;21.166;2023-09-19T03:20:15;19.70;1.00
25208;DHT22;13153;52.316;21.166;2023-09-19T03:22:44;19.70;1.00
25208;DHT22;13153;52.316;21.166;2023-09-19T03:25:11;19.70;1.00
25208;DHT22;13153;52.316;21.166;2023-09-19T03:27:40;19.60;1.00
25208;DHT22;13153;52.316;21.166;2023-09-19T03:30:07;19.60;1.00
25208;DHT22;13153;52.316;21.166;2023-09-19T03:32:44;19.60;1.00
25208;DHT22;13153;52.316;21.166;2023-09-19T03:35:12;19.60;1.00
25208;DHT22;13153;52.316;21.166;2023-09-19T03:37:40;19.60;1.00
25208;DHT22;13153;52.316;21.166;2023-09-19T03:40:08;19.60;1.00
25208;DHT22;13153;52.316;21.166;2023-09-19T03:42:38;19.60;1.00
25208;DHT22;13153;52.316;21.166;2023-09-19T03:45:07;19.60;1.00
25208;DHT22;13153;52.316;21.166;2023-09-19T03:47:36;19.60;1.00
25208;DHT22;13153;52.316;21.166;2023-09-19T03:50:02;19.60;1.00
25208;DHT22;13153;52.316;21.166;2023-09-19T03:52:28;19.60;1.00
25208;DHT22;13153;52.316;21.166;2023-09-19T03:54:54;19.60;1.00
25208;DHT22;13153;52.316;21.166;2023-09-19T03:57:20;19.60;1.00
25208;DHT22;13153;52.316;21.166;2023-09-19T03:59:46;19.60;1.00
25208;DHT22;13153;52.316;21.166;2023-09-19T04:02:13;19.60;1.00
25208;DHT22;13153;52.316;21.166;2023-09-19T04:04:48;19.60;1.00
25208;DHT22;13153;52.316;21.166;2023-09-19T04:07:14;19.60;1.00
25208;DHT22;13153;52.316;21.166;2023-09-19T04:09:40;19.60;1.00
25208;DHT22;13153;52.316;21.166;2023-09-19T04:12:07;19.60;1.00
25208;DHT22;13153;52.316;21.166;2023-09-19T04:14:36;19.50;1.00
25208;DHT22;13153;52.316;21.166;2023-09-19T04:17:02;19.50;1.00
25208;DHT22;13153;52.316;21.166;2023-09-19T04:19:28;19.50;1.00
25208;DHT22;13153;52.316;21.166;2023-09-19T04:21:54;19.50;1.00
25208;DHT22;13153;52.316;21.166;2023-09-19T04:24:20;19.50;1.00
25208;DHT22;13153;52.316;21.166;2023-09-19T04:26:46;19.50;1.00
25208;DHT22;13153;52.316;21.166;2023-09-19T04:29:12;19.50;1.00
25208;DHT22;13153;52.316;21.166;2023-09-19T04:31:40;19.50;1.00
25208;DHT22;13153;52.316;21.166;2023-09-19T04:34:06;19.50;1.00
25208;DHT22;13153;52.316;21.166;2023-09-19T04:36:33;19.50;1.00
25208;DHT22;13153;52.316;21.166;2023-09-19T04:38:59;19.40;1.00
25208;DHT22;13153;52.316;21.166;2023-09-19T04:41:24;19.40;1.00
25208;DHT22;13153;52.316;21.166;2023-09-19T04:43:50;19.40;1.00
25208;DHT22;13153;52.316;21.166;2023-09-19T04:46:16;19.40;1.00
25208;DHT22;13153;52.316;21.166;2023-09-19T04:48:43;19.40;10.90
25208;DHT22;13153;52.316;21.166;2023-09-19T04:51:09;19.40;7.50
25208;DHT22;13153;52.316;21.166;2023-09-19T04:53:36;19.40;23.20
25208;DHT22;13153;52.316;21.166;2023-09-19T04:56:02;19.40;50.80
25208;DHT22;13153;52.316;21.166;2023-09-19T04:58:29;19.40;44.10
25208;DHT22;13153;52.316;21.166;2023-09-19T05:00:55;19.40;7.10
25208;DHT22;13153;52.316;21.166;2023-09-19T05:03:22;19.50;1.00
25208;DHT22;13153;52.316;21.166;2023-09-19T05:05:48;19.50;1.00
25208;DHT22;13153;52.316;21.166;2023-09-19T05:08:14;19.50;1.00
25208;DHT22;13153;52.316;21.166;2023-09-19T05:10:40;19.60;1.00
25208;DHT22;13153;52.316;21.166;2023-09-19T05:13:06;19.70;1.00
25208;DHT22;13153;52.316;21.166;2023-09-19T05:15:34;19.80;1.00
25208;DHT22;13153;52.316;21.166;2023-09-19T05:18:01;19.90;1.00
25208;DHT22;13153;52.316;21.166;2023-09-19T05:20:27;19.90;1.00
25208;DHT22;13153;52.316;21.166;2023-09-19T05:23:06;20.10;1.00
25208;DHT22;13153;52.316;21.166;2023-09-19T05:25:35;20.20;99.90
25208;DHT22;13153;52.316;21.166;2023-09-19T05:28:09;20.30;99.90
25208;DHT22;13153;52.316;21.166;2023-09-19T05:30:40;20.40;99.90
25208;DHT22;13153;52.316;21.166;2023-09-19T05:33:08;20.60;6.30
25208;DHT22;13153;52.316;21.166;2023-09-19T05:35:35;20.70;1.00
25208;DHT22;13153;52.316;21.166;2023-09-19T05:38:07;20.80;1.00
25208;DHT22;13153;52.316;21.166;2023-09-19T05:40:37;20.90;1.00
25208;DHT22;13153;52.316;21.166;2023-09-19T05:43:04;20.90;99.90
25208;DHT22;13153;52.316;21.166;2023-09-19T05:45:31;20.90;99.90
25208;DHT22;13153;52.316;21.166;2023-09-19T05:48:08;20.80;99.90
25208;DHT22;13153;52.316;21.166;2023-09-19T05:50:35;20.70;99.90
25208;DHT22;13153;52.316;21.166;2023-09-19T05:53:01;20.60;1.00
25208;DHT22;13153;52.316;21.166;2023-09-19T05:55:27;20.50;1.00
25208;DHT22;13153;52.316;21.166;2023-09-19T05:57:54;20.50;1.00
25208;DHT22;13153;52.316;21.166;2023-09-19T06:00:21;20.40;1.00
25208;DHT22;13153;52.316;21.166;2023-09-19T06:02:56;20.30;1.00
25208;DHT22;13153;52.316;21.166;2023-09-19T06:05:23;20.30;94.30
25208;DHT22;13153;52.316;21.166;2023-09-19T06:07:52;20.20;99.90
25208;DHT22;13153;52.316;21.166;2023-09-19T06:10:19;20.20;99.90
25208;DHT22;13153;52.316;21.166;2023-09-19T06:12:48;20.20;99.90
25208;DHT22;13153;52.316;21.166;2023-09-19T06:15:15;20.30;99.90
25208;DHT22;13153;52.316;21.166;2023-09-19T06:17:50;20.40;99.90
25208;DHT22;13153;52.316;21.166;2023-09-19T06:20:20;20.50;99.90
25208;DHT22;13153;52.316;21.166;2023-09-19T06:22:48;20.60;1.00
25208;DHT22;13153;52.316;21.166;2023-09-19T06:25:16;20.60;1.00
25208;DHT22;13153;52.316;21.166;2023-09-19T06:27:48;20.70;1.00
25208;DHT22;13153;52.316;21.166;2023-09-19T06:30:18;20.70;1.00
25208;DHT22;13153;52.316;21.166;2023-09-19T06:32:44;20.80;1.00
25208;DHT22;13153;52.316;21.166;2023-09-19T06:35:10;20.80;1.00
25208;DHT22;13153;52.316;21.166;2023-09-19T06:37:39;20.90;1.00
25208;DHT22;13153;52.316;21.166;2023-09-19T06:40:13;21.00;1.00
25208;DHT22;13153;52.316;21.166;2023-09-19T06:42:51;21.20;1.00
25208;DHT22;13153;52.316;21.166;2023-09-19T06:45:21;21.40;1.00
25208;DHT22;13153;52.316;21.166;2023-09-19T06:47:49;21.50;99.90
25208;DHT22;13153;52.316;21.166;2023-09-19T06:50:23;21.60;99.90
25208;DHT22;13153;52.316;21.166;2023-09-19T06:52:53;21.90;1.00
25208;DHT22;13153;52.316;21.166;2023-09-19T06:55:21;22.10;1.00
25208;DHT22;13153;52.316;21.166;2023-09-19T06:57:50;22.40;99.90
25208;DHT22;13153;52.316;21.166;2023-09-19T07:00:17;22.80;1.00
25208;DHT22;13153;52.316;21.166;2023-09-19T07:02:44;23.20;99.90
25208;DHT22;13153;52.316;21.166;2023-09-19T07:05:10;23.40;1.00
25208;DHT22;13153;52.316;21.166;2023-09-19T07:07:36;23.50;99.90
25208;DHT22;13153;52.316;21.166;2023-09-19T07:10:03;23.80;99.90
25208;DHT22;13153;52.316;21.166;2023-09-19T07:12:32;23.80;1.00
25208;DHT22;13153;52.316;21.166;2023-09-19T07:15:00;24.00;1.00
25208;DHT22;13153;52.316;21.166;2023-09-19T07:17:26;24.10;99.90
25208;DHT22;13153;52.316;21.166;2023-09-19T07:19:53;24.10;1.00
25208;DHT22;13153;52.316;21.166;2023-09-19T07:22:19;24.20;1.00
25208;DHT22;13153;52.316;21.166;2023-09-19T07:24:45;24.30;1.00
25208;DHT22;13153;52.316;21.166;2023-09-19T07:27:12;24.30;1.00
25208;DHT22;13153;52.316;21.166;2023-09-19T07:29:38;24.40;1.00
25208;DHT22;13153;52.316;21.166;2023-09-19T07:32:04;24.60;1.00
25208;DHT22;13153;52.316;21.166;2023-09-19T07:34:31;24.80;99.90
25208;DHT22;13153;52.316;21.166;2023-09-19T07:36:57;24.90;99.90
25208;DHT22;13153;52.316;21.166;2023-09-19T07:39:22;24.90;99.90
25208;DHT22;13153;52.316;21.166;2023-09-19T07:41:48;24.90;72.80
25208;DHT22;13153;52.316;21.166;2023-09-19T07:44:15;24.80;1.00
25208;DHT22;13153;52.316;21.166;2023-09-19T07:46:40;24.70;1.00
25208;DHT22;13153;52.316;21.166;2023-09-19T07:49:06;24.70;1.00
25208;DHT22;13153;52.316;21.166;2023-09-19T07:51:33;24.70;1.00
25208;DHT22;13153;52.316;21.166;2023-09-19T07:53:59;24.60;1.00
25208;DHT22;13153;52.316;21.166;2023-09-19T07:56:25;24.50;1.00
25208;DHT22;13153;52.316;21.166;2023-09-19T07:58:53;24.30;1.00
25208;DHT22;13153;52.316;21.166;2023-09-19T08:01:18;24.20;1.00
25208;DHT22;13153;52.316;21.166;2023-09-19T08:03:44;24.20;1.00
25208;DHT22;13153;52.316;21.166;2023-09-19T08:06:10;24.20;1.00
25208;DHT22;13153;52.316;21.166;2023-09-19T08:08:37;24.20;1.00
25208;DHT22;13153;52.316;21.166;2023-09-19T08:11:03;24.40;1.00
25208;DHT22;13153;52.316;21.166;2023-09-19T08:13:41;24.40;1.00
25208;DHT22;13153;52.316;21.166;2023-09-19T08:16:11;24.50;1.00
25208;DHT22;13153;52.316;21.166;2023-09-19T08:18:37;24.60;1.00
25208;DHT22;13153;52.316;21.166;2023-09-19T08:21:05;24.60;1.00
25208;DHT22;13153;52.316;21.166;2023-09-19T08:23:39;24.50;1.00
25208;DHT22;13153;52.316;21.166;2023-09-19T08:26:06;24.40;1.00
25208;DHT22;13153;52.316;21.166;2023-09-19T08:28:34;24.30;1.00
25208;DHT22;13153;52.316;21.166;2023-09-19T08:31:04;24.30;1.00
25208;DHT22;13153;52.316;21.166;2023-09-19T08:33:35;24.30;1.00
25208;DHT22;13153;52.316;21.166;2023-09-19T08:36:05;24.40;1.00
25208;DHT22;13153;52.316;21.166;2023-09-19T08:38:34;24.40;1.00
25208;DHT22;13153;52.316;21.166;2023-09-19T08:41:05;24.50;1.00
25208;DHT22;13153;52.316;21.166;2023-09-19T08:43:32;24.50;1.00
25208;DHT22;13153;52.316;21.166;2023-09-19T08:46:12;24.50;1.00
25208;DHT22;13153;52.316;21.166;2023-09-19T08:49:04;24.50;1.00
25208;DHT22;13153;52.316;21.166;2023-09-19T08:51:42;24.40;1.00
25208;DHT22;13153;52.316;21.166;2023-09-19T08:54:22;24.40;1.00
25208;DHT22;13153;52.316;21.166;2023-09-19T08:56:54;24.30;1.00
25208;DHT22;13153;52.316;21.166;2023-09-19T08:59:25;24.30;1.00
25208;DHT22;13153;52.316;21.166;2023-09-19T09:01:55;24.30;1.00
25208;DHT22;13153;52.316;21.166;2023-09-19T09:04:22;24.30;1.00
25208;DHT22;13153;52.316;21.166;2023-09-19T09:06:51;24.30;1.00
25208;DHT22;13153;52.316;21.166;2023-09-19T09:09:20;24.30;1.00
25208;DHT22;13153;52.316;21.166;2023-09-19T09:11:48;24.30;1.00
25208;DHT22;13153;52.316;21.166;2023-09-19T09:14:20;24.30;1.00
25208;DHT22;13153;52.316;21.166;2023-09-19T09:16:47;24.20;1.00
25208;DHT22;13153;52.316;21.166;2023-09-19T09:19:14;24.30;1.00
25208;DHT22;13153;52.316;21.166;2023-09-19T09:21:46;24.20;1.00
25208;DHT22;13153;52.316;21.166;2023-09-19T09:24:30;24.20;1.00
25208;DHT22;13153;52.316;21.166;2023-09-19T09:26:59;24.10;1.00
25208;DHT22;13153;52.316;21.166;2023-09-19T09:29:42;23.90;1.00
25208;DHT22;13153;52.316;21.166;2023-09-19T09:32:26;23.80;1.00
25208;DHT22;13153;52.316;21.166;2023-09-19T09:35:00;23.60;99.90
25208;DHT22;13153;52.316;21.166;2023-09-19T09:37:28;23.40;99.90
25208;DHT22;13153;52.316;21.166;2023-09-19T09:39:56;23.30;99.90
25208;DHT22;13153;52.316;21.166;2023-09-19T09:42:44;23.20;99.90
25208;DHT22;13153;52.316;21.166;2023-09-19T09:48:03;23.00;1.00
25208;DHT22;13153;52.316;21.166;2023-09-19T09:50:46;22.80;1.00
25208;DHT22;13153;52.316;21.166;2023-09-19T09:53:29;22.70;1.00
25208;DHT22;13153;52.316;21.166;2023-09-19T09:56:08;22.60;1.00
25208;DHT22;13153;52.316;21.166;2023-09-19T10:01:13;22.40;1.00
25208;DHT22;13153;52.316;21.166;2023-09-19T10:03:42;22.30;99.90
25208;DHT22;13153;52.316;21.166;2023-09-19T10:06:17;22.30;1.00
25208;DHT22;13153;52.316;21.166;2023-09-19T10:09:08;22.20;1.00
25208;DHT22;13153;52.316;21.166;2023-09-19T10:11:44;22.10;1.00
25208;DHT22;13153;52.316;21.166;2023-09-19T10:14:12;22.00;1.00
25208;DHT22;13153;52.316;21.166;2023-09-19T10:16:48;22.00;92.20
25208;DHT22;13153;52.316;21.166;2023-09-19T10:19:20;22.00;99.90
25208;DHT22;13153;52.316;21.166;2023-09-19T10:21:54;21.90;1.00
25208;DHT22;13153;52.316;21.166;2023-09-19T10:24:24;21.90;1.00
25208;DHT22;13153;52.316;21.166;2023-09-19T10:26:53;21.80;1.00
25208;DHT22;13153;52.316;21.166;2023-09-19T10:29:21;21.70;6.60
25208;DHT22;13153;52.316;21.166;2023-09-19T10:31:49;21.70;99.90
25208;DHT22;13153;52.316;21.166;2023-09-19T10:34:19;21.60;99.90
25208;DHT22;13153;52.316;21.166;2023-09-19T10:36:48;21.50;99.90
25208;DHT22;13153;52.316;21.166;2023-09-19T10:39:17;21.50;99.90
25208;DHT22;13153;52.316;21.166;2023-09-19T10:41:53;21.40;1.00
25208;DHT22;13153;52.316;21.166;2023-09-19T10:44:25;21.40;1.00
25208;DHT22;13153;52.316;21.166;2023-09-19T10:46:52;21.40;1.00
25208;DHT22;13153;52.316;21.166;2023-09-19T10:49:20;21.30;1.00
25208;DHT22;13153;52.316;21.166;2023-09-19T10:51:49;21.30;1.00
25208;DHT22;13153;52.316;21.166;2023-09-19T10:54:22;21.40;1.00
25208;DHT22;13153;52.316;21.166;2023-09-19T10:56:52;21.40;1.00
25208;DHT22;13153;52.316;21.166;2023-09-19T10:59:20;21.40;1.00
25208;DHT22;13153;52.316;21.166;2023-09-19T11:01:51;21.40;1.00
25208;DHT22;13153;52.316;21.166;2023-09-19T11:04:22;21.40;1.00
25208;DHT22;13153;52.316;21.166;2023-09-19T11:15:00;21.50;1.00
25208;DHT22;13153;52.316;21.166;2023-09-19T11:17:37;21.60;1.00
25208;DHT22;13153;52.316;21.166;2023-09-19T11:30:41;21.60;1.00
25208;DHT22;13153;52.316;21.166;2023-09-19T11:36:16;21.70;1.00
25208;DHT22;13153;52.316;21.166;2023-09-19T11:46:21;21.70;1.00
25208;DHT22;13153;52.316;21.166;2023-09-19T11:48:51;21.80;1.00
25208;DHT22;13153;52.316;21.166;2023-09-19T11:51:24;21.80;1.00
25208;DHT22;13153;52.316;21.166;2023-09-19T11:53:56;21.90;1.00
25208;DHT22;13153;52.316;21.166;2023-09-19T11:56:26;22.00;1.00
25208;DHT22;13153;52.316;21.166;2023-09-19T11:58:57;22.00;1.00
25208;DHT22;13153;52.316;21.166;2023-09-19T12:01:29;22.10;1.00
25208;DHT22;13153;52.316;21.166;2023-09-19T12:03:59;22.10;1.00
25208;DHT22;13153;52.316;21.166;2023-09-19T12:06:28;22.10;1.00
25208;DHT22;13153;52.316;21.166;2023-09-19T12:08:55;22.10;1.00
25208;DHT22;13153;52.316;21.166;2023-09-19T12:11:22;22.10;1.00
25208;DHT22;13153;52.316;21.166;2023-09-19T12:13:50;22.10;1.00
25208;DHT22;13153;52.316;21.166;2023-09-19T12:16:20;22.10;1.00
25208;DHT22;13153;52.316;21.166;2023-09-19T12:18:48;22.00;1.00
25208;DHT22;13153;52.316;21.166;2023-09-19T12:24:13;22.00;1.00
25208;DHT22;13153;52.316;21.166;2023-09-19T12:26:40;22.00;1.00
25208;DHT22;13153;52.316;21.166;2023-09-19T12:29:16;22.10;1.00
25208;DHT22;13153;52.316;21.166;2023-09-19T12:31:58;22.10;1.00
25208;DHT22;13153;52.316;21.166;2023-09-19T12:34:32;22.20;1.00
25208;DHT22;13153;52.316;21.166;2023-09-19T12:37:04;22.20;1.00
25208;DHT22;13153;52.316;21.166;2023-09-19T12:39:45;22.30;99.90
25208;DHT22;13153;52.316;21.166;2023-09-19T12:42:26;22.30;99.90
25208;DHT22;13153;52.316;21.166;2023-09-19T12:44:58;22.30;99.90
25208;DHT22;13153;52.316;21.166;2023-09-19T12:47:27;22.30;99.90
25208;DHT22;13153;52.316;21.166;2023-09-19T12:50:11;22.30;99.90
25208;DHT22;13153;52.316;21.166;2023-09-19T12:52:48;22.30;99.90
25208;DHT22;13153;52.316;21.166;2023-09-19T12:55:27;22.20;99.90
25208;DHT22;13153;52.316;21.166;2023-09-19T13:03:17;22.10;1.00
25208;DHT22;13153;52.316;21.166;2023-09-19T13:05:55;22.00;1.00
25208;DHT22;13153;52.316;21.166;2023-09-19T13:08:31;22.00;1.00
25208;DHT22;13153;52.316;21.166;2023-09-19T13:11:11;21.90;1.00
25208;DHT22;13153;52.316;21.166;2023-09-19T13:13:50;21.80;1.00
25208;DHT22;13153;52.316;21.166;2023-09-19T13:19:39;21.70;1.00
25208;DHT22;13153;52.316;21.166;2023-09-19T13:22:43;21.70;1.00
25208;DHT22;13153;52.316;21.166;2023-09-19T13:25:21;21.70;1.00
25208;DHT22;13153;52.316;21.166;2023-09-19T13:27:48;21.70;1.00
25208;DHT22;13153;52.316;21.166;2023-09-19T13:30:20;21.70;1.00
25208;DHT22;13153;52.316;21.166;2023-09-19T13:32:47;21.70;1.00
25208;DHT22;13153;52.316;21.166;2023-09-19T13:35:14;21.70;1.00
25208;DHT22;13153;52.316;21.166;2023-09-19T13:37:41;21.70;1.00
25208;DHT22;13153;52.316;21.166;2023-09-19T13:40:13;21.60;1.00
25208;DHT22;13153;52.316;21.166;2023-09-19T13:42:40;21.60;1.00
25208;DHT22;13153;52.316;21.166;2023-09-19T13:45:07;21.60;1.00
25208;DHT22;13153;52.316;21.166;2023-09-19T13:47:37;21.60;1.00
25208;DHT22;13153;52.316;21.166;2023-09-19T13:50:04;21.60;1.00
25208;DHT22;13153;52.316;21.166;2023-09-19T13:52:31;21.60;1.00
25208;DHT22;13153;52.316;21.166;2023-09-19T13:54:58;21.60;1.00
25208;DHT22;13153;52.316;21.166;2023-09-19T13:57:24;21.60;1.00
25208;DHT22;13153;52.316;21.166;2023-09-19T13:59:51;21.60;1.00
25208;DHT22;13153;52.316;21.166;2023-09-19T14:02:20;21.50;1.00
25208;DHT22;13153;52.316;21.166;2023-09-19T14:04:48;21.50;1.00
25208;DHT22;13153;52.316;21.166;2023-09-19T14:07:15;21.50;1.00
25208;DHT22;13153;52.316;21.166;2023-09-19T14:09:43;21.50;1.00
25208;DHT22;13153;52.316;21.166;2023-09-19T14:12:08;21.50;1.00
25208;DHT22;13153;52.316;21.166;2023-09-19T14:14:34;21.50;1.00
25208;DHT22;13153;52.316;21.166;2023-09-19T14:17:00;21.60;1.00
25208;DHT22;13153;52.316;21.166;2023-09-19T14:19:29;21.60;1.00
25208;DHT22;13153;52.316;21.166;2023-09-19T14:21:54;21.60;1.00
25208;DHT22;13153;52.316;21.166;2023-09-19T14:24:21;21.60;1.00
25208;DHT22;13153;52.316;21.166;2023-09-19T14:26:48;21.60;1.00
25208;DHT22;13153;52.316;21.166;2023-09-19T14:29:15;21.60;1.00
25208;DHT22;13153;52.316;21.166;2023-09-19T14:31:42;21.60;1.00
25208;DHT22;13153;52.316;21.166;2023-09-19T14:34:08;21.50;1.00
25208;DHT22;13153;52.316;21.166;2023-09-19T14:36:38;21.50;1.00
25208;DHT22;13153;52.316;21.166;2023-09-19T14:39:06;21.60;1.00
25208;DHT22;13153;52.316;21.166;2023-09-19T14:41:33;21.60;1.00
25208;DHT22;13153;52.316;21.166;2023-09-19T14:44:01;21.60;1.00
25208;DHT22;13153;52.316;21.166;2023-09-19T14:46:28;21.60;1.00
25208;DHT22;13153;52.316;21.166;2023-09-19T14:48:54;21.50;1.00
25208;DHT22;13153;52.316;21.166;2023-09-19T14:51:25;21.60;1.00
25208;DHT22;13153;52.316;21.166;2023-09-19T14:53:50;21.50;1.00
25208;DHT22;13153;52.316;21.166;2023-09-19T14:56:17;21.50;1.00
25208;DHT22;13153;52.316;21.166;2023-09-19T14:58:43;21.50;1.00
25208;DHT22;13153;52.316;21.166;2023-09-19T15:01:11;21.50;1.00
25208;DHT22;13153;52.316;21.166;2023-09-19T15:03:39;21.50;1.00
25208;DHT22;13153;52.316;21.166;2023-09-19T15:06:11;21.50;1.00
25208;DHT22;13153;52.316;21.166;2023-09-19T15:08:43;21.40;1.00
25208;DHT22;13153;52.316;21.166;2023-09-19T15:11:16;21.50;1.00
25208;DHT22;13153;52.316;21.166;2023-09-19T15:13:44;21.50;1.00
25208;DHT22;13153;52.316;21.166;2023-09-19T15:16:11;21.50;1.00
25208;DHT22;13153;52.316;21.166;2023-09-19T15:18:40;21.50;1.00
25208;DHT22;13153;52.316;21.166;2023-09-19T15:21:08;21.50;1.00
25208;DHT22;13153;52.316;21.166;2023-09-19T15:23:38;21.50;1.00
25208;DHT22;13153;52.316;21.166;2023-09-19T15:26:13;21.50;1.00
25208;DHT22;13153;52.316;21.166;2023-09-19T15:28:42;21.50;1.00
25208;DHT22;13153;52.316;21.166;2023-09-19T15:31:10;21.50;1.00
25208;DHT22;13153;52.316;21.166;2023-09-19T15:33:38;21.50;1.00
25208;DHT22;13153;52.316;21.166;2023-09-19T15:36:05;21.60;1.00
25208;DHT22;13153;52.316;21.166;2023-09-19T15:39:03;21.50;1.00
25208;DHT22;13153;52.316;21.166;2023-09-19T15:41:33;21.50;1.00
25208;DHT22;13153;52.316;21.166;2023-09-19T15:44:02;21.50;1.00
25208;DHT22;13153;52.316;21.166;2023-09-19T15:46:32;21.50;1.00
25208;DHT22;13153;52.316;21.166;2023-09-19T15:49:02;21.50;1.00
25208;DHT22;13153;52.316;21.166;2023-09-19T15:51:29;21.50;1.00
25208;DHT22;13153;52.316;21.166;2023-09-19T15:53:55;21.40;1.00
25208;DHT22;13153;52.316;21.166;2023-09-19T15:56:22;21.40;1.00
25208;DHT22;13153;52.316;21.166;2023-09-19T15:58:54;21.40;1.00
25208;DHT22;13153;52.316;21.166;2023-09-19T16:01:21;21.40;1.00
25208;DHT22;13153;52.316;21.166;2023-09-19T16:03:50;21.50;1.00
25208;DHT22;13153;52.316;21.166;2023-09-19T16:06:22;21.50;1.00
25208;DHT22;13153;52.316;21.166;2023-09-19T16:08:52;21.40;1.00
25208;DHT22;13153;52.316;21.166;2023-09-19T16:11:21;21.40;1.00
25208;DHT22;13153;52.316;21.166;2023-09-19T16:13:49;21.40;1.00
25208;DHT22;13153;52.316;21.166;2023-09-19T16:16:16;21.30;1.00
25208;DHT22;13153;52.316;21.166;2023-09-19T16:18:56;21.30;1.00
25208;DHT22;13153;52.316;21.166;2023-09-19T16:21:25;21.30;1.00
25208;DHT22;13153;52.316;21.166;2023-09-19T16:23:56;21.20;1.00
25208;DHT22;13153;52.316;21.166;2023-09-19T16:26:24;21.20;1.00
25208;DHT22;13153;52.316;21.166;2023-09-19T16:28:53;21.10;1.00
25208;DHT22;13153;52.316;21.166;2023-09-19T16:31:25;21.10;1.00
25208;DHT22;13153;52.316;21.166;2023-09-19T16:33:52;21.00;1.00
25208;DHT22;13153;52.316;21.166;2023-09-19T16:36:19;21.00;1.00
25208;DHT22;13153;52.316;21.166;2023-09-19T16:38:47;21.00;1.00
25208;DHT22;13153;52.316;21.166;2023-09-19T16:41:14;20.90;1.00
25208;DHT22;13153;52.316;21.166;2023-09-19T16:43:41;20.90;1.00